sensor_id;sensor_type;location;lat;lon;timestamp;P1;durP1;ratioP1;P2;durP2;ratioP2
26622;SDS011;14254;50.968;5.366;2023-08-06T00:00:19;13.15;;;2.33;;
26622;SDS011;14254;50.968;5.366;2023-08-06T00:02:45;3.58;;;2.35;;
26622;SDS011;14254;50.968;5.366;2023-08-06T00:05:10;5.18;;;2.03;;
26622;SDS011;14254;50.968;5.366;2023-08-06T00:07:36;8.52;;;2.33;;
26622;SDS011;14254;50.968;5.366;2023-08-06T00:10:02;6.90;;;2.40;;
26622;SDS011;14254;50.968;5.366;2023-08-06T00:12:27;8.30;;;2.72;;
26622;SDS011;14254;50.968;5.366;2023-08-06T00:14:53;7.60;;;2.47;;
26622;SDS011;14254;50.968;5.366;2023-08-06T00:17:19;5.47;;;1.90;;
26622;SDS011;14254;50.968;5.366;2023-08-06T00:19:45;3.42;;;1.73;;
26622;SDS011;14254;50.968;5.366;2023-08-06T00:22:10;4.88;;;1.98;;
26622;SDS011;14254;50.968;5.366;2023-08-06T00:24:36;6.68;;;1.83;;
26622;SDS011;14254;50.968;5.366;2023-08-06T00:27:02;4.57;;;2.10;;
26622;SDS011;14254;50.968;5.366;2023-08-06T00:29:28;8.88;;;1.75;;
26622;SDS011;14254;50.968;5.366;2023-08-06T00:31:54;3.05;;;1.63;;
26622;SDS011;14254;50.968;5.366;2023-08-06T00:34:19;5.05;;;1.75;;
26622;SDS011;14254;50.968;5.366;2023-08-06T00:36:45;5.65;;;1.50;;
26622;SDS011;14254;50.968;5.366;2023-08-06T00:39:11;7.30;;;1.85;;
26622;SDS011;14254;50.968;5.366;2023-08-06T00:41:36;5.22;;;1.77;;
26622;SDS011;14254;50.968;5.366;2023-08-06T00:44:02;4.45;;;1.67;;
26622;SDS011;14254;50.968;5.366;2023-08-06T00:46:28;5.82;;;1.42;;
26622;SDS011;14254;50.968;5.366;2023-08-06T00:48:55;4.13;;;1.55;;
26622;SDS011;14254;50.968;5.366;2023-08-06T00:51:21;2.90;;;1.30;;
26622;SDS011;14254;50.968;5.366;2023-08-06T00:53:48;6.25;;;2.45;;
26622;SDS011;14254;50.968;5.366;2023-08-06T00:56:15;7.20;;;1.60;;
26622;SDS011;14254;50.968;5.366;2023-08-06T00:58:41;2.70;;;1.80;;
26622;SDS011;14254;50.968;5.366;2023-08-06T01:01:06;4.55;;;1.73;;
26622;SDS011;14254;50.968;5.366;2023-08-06T01:03:32;4.75;;;1.42;;
26622;SDS011;14254;50.968;5.366;2023-08-06T01:05:58;4.13;;;1.52;;
26622;SDS011;14254;50.968;5.366;2023-08-06T01:14:02;1.92;;;1.33;;
26622;SDS011;14254;50.968;5.366;2023-08-06T01:16:34;6.85;;;1.98;;
26622;SDS011;14254;50.968;5.366;2023-08-06T01:19:00;7.47;;;1.60;;
26622;SDS011;14254;50.968;5.366;2023-08-06T01:21:26;3.83;;;1.55;;
26622;SDS011;14254;50.968;5.366;2023-08-06T01:23:51;3.92;;;1.58;;
26622;SDS011;14254;50.968;5.366;2023-08-06T01:28:56;4.25;;;1.40;;
26622;SDS011;14254;50.968;5.366;2023-08-06T01:31:22;3.17;;;1.30;;
26622;SDS011;14254;50.968;5.366;2023-08-06T01:33:51;5.22;;;1.33;;
26622;SDS011;14254;50.968;5.366;2023-08-06T01:36:18;6.97;;;2.53;;
26622;SDS011;14254;50.968;5.366;2023-08-06T01:38:45;4.22;;;1.33;;
26622;SDS011;14254;50.968;5.366;2023-08-06T01:41:11;3.85;;;2.10;;
26622;SDS011;14254;50.968;5.366;2023-08-06T01:43:37;3.28;;;1.88;;
26622;SDS011;14254;50.968;5.366;2023-08-06T01:46:02;3.88;;;1.75;;
26622;SDS011;14254;50.968;5.366;2023-08-06T01:48:28;3.72;;;1.63;;
26622;SDS011;14254;50.968;5.366;2023-08-06T01:50:53;4.72;;;2.03;;
26622;SDS011;14254;50.968;5.366;2023-08-06T01:53:19;3.95;;;1.98;;
26622;SDS011;14254;50.968;5.366;2023-08-06T01:55:51;5.85;;;1.85;;
26622;SDS011;14254;50.968;5.366;2023-08-06T02:00:42;4.20;;;1.52;;
26622;SDS011;14254;50.968;5.366;2023-08-06T02:03:07;3.90;;;1.63;;
26622;SDS011;14254;50.968;5.366;2023-08-06T02:05:33;4.18;;;1.63;;
26622;SDS011;14254;50.968;5.366;2023-08-06T02:07:59;2.17;;;1.27;;
26622;SDS011;14254;50.968;5.366;2023-08-06T02:10:24;7.60;;;2.10;;
26622;SDS011;14254;50.968;5.366;2023-08-06T02:12:50;2.50;;;1.75;;
26622;SDS011;14254;50.968;5.366;2023-08-06T02:15:16;3.65;;;1.55;;
26622;SDS011;14254;50.968;5.366;2023-08-06T02:17:41;3.30;;;1.55;;
26622;SDS011;14254;50.968;5.366;2023-08-06T02:20:07;3.47;;;1.42;;
26622;SDS011;14254;50.968;5.366;2023-08-06T02:22:33;2.08;;;1.55;;
26622;SDS011;14254;50.968;5.366;2023-08-06T02:24:59;2.35;;;1.42;;
26622;SDS011;14254;50.968;5.366;2023-08-06T02:27:24;6.20;;;1.83;;
26622;SDS011;14254;50.968;5.366;2023-08-06T02:29:50;4.20;;;1.70;;
26622;SDS011;14254;50.968;5.366;2023-08-06T02:32:16;2.92;;;1.45;;
26622;SDS011;14254;50.968;5.366;2023-08-06T02:34:42;2.47;;;1.35;;
26622;SDS011;14254;50.968;5.366;2023-08-06T02:37:07;4.25;;;2.13;;
26622;SDS011;14254;50.968;5.366;2023-08-06T02:39:33;3.47;;;1.50;;
26622;SDS011;14254;50.968;5.366;2023-08-06T02:42:00;4.63;;;1.75;;
26622;SDS011;14254;50.968;5.366;2023-08-06T02:44:29;4.13;;;1.60;;
26622;SDS011;14254;50.968;5.366;2023-08-06T02:46:54;5.00;;;1.48;;
26622;SDS011;14254;50.968;5.366;2023-08-06T02:49:20;5.38;;;1.63;;
26622;SDS011;14254;50.968;5.366;2023-08-06T02:51:46;5.00;;;1.60;;
26622;SDS011;14254;50.968;5.366;2023-08-06T02:54:11;2.35;;;1.55;;
26622;SDS011;14254;50.968;5.366;2023-08-06T02:56:37;5.25;;;1.60;;
26622;SDS011;14254;50.968;5.366;2023-08-06T02:59:03;5.47;;;1.60;;
26622;SDS011;14254;50.968;5.366;2023-08-06T03:01:29;7.55;;;1.73;;
26622;SDS011;14254;50.968;5.366;2023-08-06T03:03:54;1.95;;;1.38;;
26622;SDS011;14254;50.968;5.366;2023-08-06T03:06:20;7.35;;;2.05;;
26622;SDS011;14254;50.968;5.366;2023-08-06T03:08:46;9.20;;;1.67;;
26622;SDS011;14254;50.968;5.366;2023-08-06T03:11:11;4.43;;;1.75;;
26622;SDS011;14254;50.968;5.366;2023-08-06T03:13:37;5.63;;;1.70;;
26622;SDS011;14254;50.968;5.366;2023-08-06T03:16:02;4.15;;;1.75;;
26622;SDS011;14254;50.968;5.366;2023-08-06T03:18:29;5.05;;;1.67;;
26622;SDS011;14254;50.968;5.366;2023-08-06T03:20:54;1.60;;;1.50;;
26622;SDS011;14254;50.968;5.366;2023-08-06T03:23:20;3.88;;;1.50;;
26622;SDS011;14254;50.968;5.366;2023-08-06T03:25:46;4.78;;;1.70;;
26622;SDS011;14254;50.968;5.366;2023-08-06T03:28:11;7.95;;;2.13;;
26622;SDS011;14254;50.968;5.366;2023-08-06T03:30:38;5.75;;;1.73;;
26622;SDS011;14254;50.968;5.366;2023-08-06T03:33:03;3.80;;;1.80;;
26622;SDS011;14254;50.968;5.366;2023-08-06T03:35:29;4.60;;;1.95;;
26622;SDS011;14254;50.968;5.366;2023-08-06T03:37:55;3.35;;;1.77;;
26622;SDS011;14254;50.968;5.366;2023-08-06T03:40:21;4.18;;;1.95;;
26622;SDS011;14254;50.968;5.366;2023-08-06T03:42:46;3.63;;;2.00;;
26622;SDS011;14254;50.968;5.366;2023-08-06T03:45:12;4.60;;;2.35;;
26622;SDS011;14254;50.968;5.366;2023-08-06T03:47:38;9.57;;;2.20;;
26622;SDS011;14254;50.968;5.366;2023-08-06T03:50:03;3.45;;;1.80;;
26622;SDS011;14254;50.968;5.366;2023-08-06T03:52:29;9.93;;;2.17;;
26622;SDS011;14254;50.968;5.366;2023-08-06T03:54:55;2.78;;;1.95;;
26622;SDS011;14254;50.968;5.366;2023-08-06T03:57:21;4.07;;;2.22;;
26622;SDS011;14254;50.968;5.366;2023-08-06T03:59:46;6.18;;;3.47;;
26622;SDS011;14254;50.968;5.366;2023-08-06T04:02:12;7.53;;;4.45;;
26622;SDS011;14254;50.968;5.366;2023-08-06T04:04:37;8.20;;;4.25;;
26622;SDS011;14254;50.968;5.366;2023-08-06T04:07:03;8.07;;;4.00;;
26622;SDS011;14254;50.968;5.366;2023-08-06T04:09:29;6.25;;;4.22;;
26622;SDS011;14254;50.968;5.366;2023-08-06T04:11:55;7.82;;;4.63;;
26622;SDS011;14254;50.968;5.366;2023-08-06T04:14:21;15.68;;;5.18;;
26622;SDS011;14254;50.968;5.366;2023-08-06T04:16:47;6.93;;;5.05;;
26622;SDS011;14254;50.968;5.366;2023-08-06T04:19:12;10.60;;;5.13;;
26622;SDS011;14254;50.968;5.366;2023-08-06T04:21:38;11.35;;;4.90;;
26622;SDS011;14254;50.968;5.366;2023-08-06T04:24:04;7.90;;;4.50;;
26622;SDS011;14254;50.968;5.366;2023-08-06T04:26:29;11.20;;;6.18;;
26622;SDS011;14254;50.968;5.366;2023-08-06T04:28:55;8.40;;;5.10;;
26622;SDS011;14254;50.968;5.366;2023-08-06T04:31:21;9.93;;;5.30;;
26622;SDS011;14254;50.968;5.366;2023-08-06T04:33:48;10.13;;;5.82;;
26622;SDS011;14254;50.968;5.366;2023-08-06T04:36:13;15.70;;;7.25;;
26622;SDS011;14254;50.968;5.366;2023-08-06T04:38:39;10.85;;;5.10;;
26622;SDS011;14254;50.968;5.366;2023-08-06T04:41:09;10.90;;;5.63;;
26622;SDS011;14254;50.968;5.366;2023-08-06T04:43:35;11.45;;;5.57;;
26622;SDS011;14254;50.968;5.366;2023-08-06T04:46:01;11.85;;;5.28;;
26622;SDS011;14254;50.968;5.366;2023-08-06T04:48:27;12.27;;;5.30;;
26622;SDS011;14254;50.968;5.366;2023-08-06T04:50:52;13.27;;;5.65;;
26622;SDS011;14254;50.968;5.366;2023-08-06T04:53:18;13.10;;;5.85;;
26622;SDS011;14254;50.968;5.366;2023-08-06T04:55:43;15.02;;;5.95;;
26622;SDS011;14254;50.968;5.366;2023-08-06T04:58:10;12.88;;;5.65;;
26622;SDS011;14254;50.968;5.366;2023-08-06T05:00:35;9.50;;;5.68;;
26622;SDS011;14254;50.968;5.366;2023-08-06T05:03:01;9.80;;;5.32;;
26622;SDS011;14254;50.968;5.366;2023-08-06T05:05:27;6.07;;;4.65;;
26622;SDS011;14254;50.968;5.366;2023-08-06T05:07:54;5.18;;;4.07;;
26622;SDS011;14254;50.968;5.366;2023-08-06T05:10:20;6.38;;;4.55;;
26622;SDS011;14254;50.968;5.366;2023-08-06T05:12:46;8.05;;;4.22;;
26622;SDS011;14254;50.968;5.366;2023-08-06T05:15:12;7.68;;;5.40;;
26622;SDS011;14254;50.968;5.366;2023-08-06T05:17:38;4.82;;;3.47;;
26622;SDS011;14254;50.968;5.366;2023-08-06T05:20:03;4.70;;;3.63;;
26622;SDS011;14254;50.968;5.366;2023-08-06T05:22:29;7.15;;;4.25;;
26622;SDS011;14254;50.968;5.366;2023-08-06T05:24:55;5.63;;;4.25;;
26622;SDS011;14254;50.968;5.366;2023-08-06T05:27:21;6.25;;;4.22;;
26622;SDS011;14254;50.968;5.366;2023-08-06T05:29:47;9.10;;;4.53;;
26622;SDS011;14254;50.968;5.366;2023-08-06T05:32:13;8.63;;;4.70;;
26622;SDS011;14254;50.968;5.366;2023-08-06T05:34:39;5.50;;;4.45;;
26622;SDS011;14254;50.968;5.366;2023-08-06T05:37:06;8.30;;;4.28;;
26622;SDS011;14254;50.968;5.366;2023-08-06T05:39:32;6.20;;;3.90;;
26622;SDS011;14254;50.968;5.366;2023-08-06T05:41:57;3.83;;;3.50;;
26622;SDS011;14254;50.968;5.366;2023-08-06T05:44:23;4.93;;;2.67;;
26622;SDS011;14254;50.968;5.366;2023-08-06T05:46:49;3.55;;;2.55;;
26622;SDS011;14254;50.968;5.366;2023-08-06T05:49:15;2.45;;;1.98;;
26622;SDS011;14254;50.968;5.366;2023-08-06T05:51:41;3.42;;;1.85;;
26622;SDS011;14254;50.968;5.366;2023-08-06T05:54:06;1.60;;;1.50;;
26622;SDS011;14254;50.968;5.366;2023-08-06T05:56:32;2.28;;;1.88;;
26622;SDS011;14254;50.968;5.366;2023-08-06T05:58:58;1.95;;;1.73;;
26622;SDS011;14254;50.968;5.366;2023-08-06T06:01:24;2.92;;;1.88;;
26622;SDS011;14254;50.968;5.366;2023-08-06T06:03:49;3.53;;;2.38;;
26622;SDS011;14254;50.968;5.366;2023-08-06T06:06:15;3.30;;;3.00;;
26622;SDS011;14254;50.968;5.366;2023-08-06T06:08:42;7.22;;;3.65;;
26622;SDS011;14254;50.968;5.366;2023-08-06T06:11:08;4.57;;;3.78;;
26622;SDS011;14254;50.968;5.366;2023-08-06T06:13:33;6.00;;;4.05;;
26622;SDS011;14254;50.968;5.366;2023-08-06T06:15:59;6.72;;;4.03;;
26622;SDS011;14254;50.968;5.366;2023-08-06T06:18:24;5.95;;;4.22;;
26622;SDS011;14254;50.968;5.366;2023-08-06T06:20:50;4.03;;;3.55;;
26622;SDS011;14254;50.968;5.366;2023-08-06T06:23:16;5.60;;;3.67;;
26622;SDS011;14254;50.968;5.366;2023-08-06T06:25:42;3.97;;;2.75;;
26622;SDS011;14254;50.968;5.366;2023-08-06T06:28:08;4.78;;;2.22;;
26622;SDS011;14254;50.968;5.366;2023-08-06T06:30:34;1.77;;;1.67;;
26622;SDS011;14254;50.968;5.366;2023-08-06T06:33:00;1.55;;;1.45;;
26622;SDS011;14254;50.968;5.366;2023-08-06T06:35:25;2.17;;;1.58;;
26622;SDS011;14254;50.968;5.366;2023-08-06T06:37:51;1.83;;;1.70;;
26622;SDS011;14254;50.968;5.366;2023-08-06T06:40:17;5.22;;;2.05;;
26622;SDS011;14254;50.968;5.366;2023-08-06T06:42:42;2.10;;;1.98;;
26622;SDS011;14254;50.968;5.366;2023-08-06T06:45:08;9.57;;;2.20;;
26622;SDS011;14254;50.968;5.366;2023-08-06T06:47:34;3.65;;;2.85;;
26622;SDS011;14254;50.968;5.366;2023-08-06T06:50:00;3.88;;;2.85;;
26622;SDS011;14254;50.968;5.366;2023-08-06T06:52:26;4.07;;;3.03;;
26622;SDS011;14254;50.968;5.366;2023-08-06T06:54:51;9.73;;;3.90;;
26622;SDS011;14254;50.968;5.366;2023-08-06T06:57:17;4.75;;;3.90;;
26622;SDS011;14254;50.968;5.366;2023-08-06T06:59:43;4.05;;;3.55;;
26622;SDS011;14254;50.968;5.366;2023-08-06T07:02:08;5.75;;;4.20;;
26622;SDS011;14254;50.968;5.366;2023-08-06T07:04:34;7.15;;;3.75;;
26622;SDS011;14254;50.968;5.366;2023-08-06T07:06:59;4.65;;;3.95;;
26622;SDS011;14254;50.968;5.366;2023-08-06T07:09:25;4.95;;;4.22;;
26622;SDS011;14254;50.968;5.366;2023-08-06T07:11:52;5.63;;;4.60;;
26622;SDS011;14254;50.968;5.366;2023-08-06T07:14:17;9.75;;;5.85;;
26622;SDS011;14254;50.968;5.366;2023-08-06T07:16:43;8.00;;;5.90;;
26622;SDS011;14254;50.968;5.366;2023-08-06T07:19:08;6.53;;;4.95;;
26622;SDS011;14254;50.968;5.366;2023-08-06T07:21:34;17.20;;;6.05;;
26622;SDS011;14254;50.968;5.366;2023-08-06T07:24:00;8.23;;;5.28;;
26622;SDS011;14254;50.968;5.366;2023-08-06T07:26:25;7.47;;;5.07;;
26622;SDS011;14254;50.968;5.366;2023-08-06T07:28:51;6.20;;;5.07;;
26622;SDS011;14254;50.968;5.366;2023-08-06T07:31:17;5.70;;;5.10;;
26622;SDS011;14254;50.968;5.366;2023-08-06T07:33:42;7.63;;;3.50;;
26622;SDS011;14254;50.968;5.366;2023-08-06T07:36:12;8.60;;;3.90;;
26622;SDS011;14254;50.968;5.366;2023-08-06T07:38:38;7.47;;;3.28;;
26622;SDS011;14254;50.968;5.366;2023-08-06T07:41:04;8.07;;;3.22;;
26622;SDS011;14254;50.968;5.366;2023-08-06T07:43:30;5.80;;;2.90;;
26622;SDS011;14254;50.968;5.366;2023-08-06T07:45:59;7.40;;;2.70;;
26622;SDS011;14254;50.968;5.366;2023-08-06T07:48:26;9.05;;;2.63;;
26622;SDS011;14254;50.968;5.366;2023-08-06T07:50:52;8.25;;;2.75;;
26622;SDS011;14254;50.968;5.366;2023-08-06T07:53:22;9.50;;;3.20;;
26622;SDS011;14254;50.968;5.366;2023-08-06T07:55:51;7.00;;;3.65;;
26622;SDS011;14254;50.968;5.366;2023-08-06T07:58:17;5.90;;;3.47;;
26622;SDS011;14254;50.968;5.366;2023-08-06T08:00:43;6.90;;;2.97;;
26622;SDS011;14254;50.968;5.366;2023-08-06T08:03:11;6.80;;;3.40;;
26622;SDS011;14254;50.968;5.366;2023-08-06T08:05:38;7.95;;;3.42;;
26622;SDS011;14254;50.968;5.366;2023-08-06T08:08:04;8.88;;;3.03;;
26622;SDS011;14254;50.968;5.366;2023-08-06T08:10:30;13.38;;;3.30;;
26622;SDS011;14254;50.968;5.366;2023-08-06T08:12:56;10.18;;;4.22;;
26622;SDS011;14254;50.968;5.366;2023-08-06T08:15:22;11.48;;;3.67;;
26622;SDS011;14254;50.968;5.366;2023-08-06T08:17:48;9.75;;;4.18;;
26622;SDS011;14254;50.968;5.366;2023-08-06T08:20:14;7.05;;;3.28;;
26622;SDS011;14254;50.968;5.366;2023-08-06T08:22:41;11.52;;;4.30;;
26622;SDS011;14254;50.968;5.366;2023-08-06T08:25:07;9.70;;;3.53;;
26622;SDS011;14254;50.968;5.366;2023-08-06T08:27:32;12.20;;;3.58;;
26622;SDS011;14254;50.968;5.366;2023-08-06T08:29:58;11.63;;;3.03;;
26622;SDS011;14254;50.968;5.366;2023-08-06T08:32:24;15.18;;;3.25;;
26622;SDS011;14254;50.968;5.366;2023-08-06T08:34:49;10.45;;;3.75;;
26622;SDS011;14254;50.968;5.366;2023-08-06T08:37:15;6.88;;;2.58;;
26622;SDS011;14254;50.968;5.366;2023-08-06T08:39:40;13.98;;;3.22;;
26622;SDS011;14254;50.968;5.366;2023-08-06T08:42:06;5.90;;;2.95;;
26622;SDS011;14254;50.968;5.366;2023-08-06T08:44:32;19.80;;;3.33;;
26622;SDS011;14254;50.968;5.366;2023-08-06T08:46:59;10.27;;;3.15;;
26622;SDS011;14254;50.968;5.366;2023-08-06T08:49:26;10.25;;;3.28;;
26622;SDS011;14254;50.968;5.366;2023-08-06T08:51:52;8.85;;;2.88;;
26622;SDS011;14254;50.968;5.366;2023-08-06T08:54:20;8.95;;;2.80;;
26622;SDS011;14254;50.968;5.366;2023-08-06T08:56:48;11.13;;;3.47;;
26622;SDS011;14254;50.968;5.366;2023-08-06T08:59:14;11.95;;;3.00;;
26622;SDS011;14254;50.968;5.366;2023-08-06T09:01:40;14.75;;;3.53;;
26622;SDS011;14254;50.968;5.366;2023-08-06T09:04:08;14.25;;;3.05;;
26622;SDS011;14254;50.968;5.366;2023-08-06T09:06:36;8.60;;;2.97;;
26622;SDS011;14254;50.968;5.366;2023-08-06T09:09:08;8.27;;;3.05;;
26622;SDS011;14254;50.968;5.366;2023-08-06T09:11:39;14.60;;;3.60;;
26622;SDS011;14254;50.968;5.366;2023-08-06T09:14:09;6.32;;;2.85;;
26622;SDS011;14254;50.968;5.366;2023-08-06T09:16:36;15.05;;;3.10;;
26622;SDS011;14254;50.968;5.366;2023-08-06T09:19:20;13.95;;;3.08;;
26622;SDS011;14254;50.968;5.366;2023-08-06T09:21:46;10.73;;;2.53;;
26622;SDS011;14254;50.968;5.366;2023-08-06T09:24:14;14.90;;;2.60;;
26622;SDS011;14254;50.968;5.366;2023-08-06T09:26:42;10.38;;;2.33;;
26622;SDS011;14254;50.968;5.366;2023-08-06T09:29:09;9.90;;;2.17;;
26622;SDS011;14254;50.968;5.366;2023-08-06T09:34:17;10.43;;;2.65;;
26622;SDS011;14254;50.968;5.366;2023-08-06T09:36:46;12.43;;;2.35;;
26622;SDS011;14254;50.968;5.366;2023-08-06T09:39:12;11.48;;;2.47;;
26622;SDS011;14254;50.968;5.366;2023-08-06T09:41:40;5.13;;;2.38;;
26622;SDS011;14254;50.968;5.366;2023-08-06T09:44:13;13.93;;;2.58;;
26622;SDS011;14254;50.968;5.366;2023-08-06T09:46:48;12.15;;;2.28;;
26622;SDS011;14254;50.968;5.366;2023-08-06T09:49:14;6.00;;;2.30;;
26622;SDS011;14254;50.968;5.366;2023-08-06T09:51:40;17.70;;;3.25;;
26622;SDS011;14254;50.968;5.366;2023-08-06T09:54:07;9.82;;;2.47;;
26622;SDS011;14254;50.968;5.366;2023-08-06T09:56:33;10.70;;;2.28;;
26622;SDS011;14254;50.968;5.366;2023-08-06T09:59:04;11.70;;;2.42;;
26622;SDS011;14254;50.968;5.366;2023-08-06T10:01:31;19.00;;;2.80;;
26622;SDS011;14254;50.968;5.366;2023-08-06T10:03:59;10.10;;;2.45;;
26622;SDS011;14254;50.968;5.366;2023-08-06T10:06:26;10.45;;;2.67;;
26622;SDS011;14254;50.968;5.366;2023-08-06T10:08:52;10.73;;;2.40;;
26622;SDS011;14254;50.968;5.366;2023-08-06T10:11:18;15.38;;;2.60;;
26622;SDS011;14254;50.968;5.366;2023-08-06T10:13:50;10.85;;;2.67;;
26622;SDS011;14254;50.968;5.366;2023-08-06T10:16:20;9.75;;;2.45;;
26622;SDS011;14254;50.968;5.366;2023-08-06T10:18:47;9.73;;;2.70;;
26622;SDS011;14254;50.968;5.366;2023-08-06T10:21:13;18.45;;;3.10;;
26622;SDS011;14254;50.968;5.366;2023-08-06T10:23:41;15.07;;;2.42;;
26622;SDS011;14254;50.968;5.366;2023-08-06T10:26:07;6.93;;;2.03;;
26622;SDS011;14254;50.968;5.366;2023-08-06T10:28:39;9.30;;;2.30;;
26622;SDS011;14254;50.968;5.366;2023-08-06T10:31:05;7.05;;;1.90;;
26622;SDS011;14254;50.968;5.366;2023-08-06T10:33:44;7.47;;;2.35;;
26622;SDS011;14254;50.968;5.366;2023-08-06T10:36:11;8.68;;;2.30;;
26622;SDS011;14254;50.968;5.366;2023-08-06T10:38:44;10.02;;;2.35;;
26622;SDS011;14254;50.968;5.366;2023-08-06T10:41:27;9.73;;;2.17;;
26622;SDS011;14254;50.968;5.366;2023-08-06T10:44:06;7.57;;;2.40;;
26622;SDS011;14254;50.968;5.366;2023-08-06T10:46:33;14.88;;;3.03;;
26622;SDS011;14254;50.968;5.366;2023-08-06T10:48:59;6.82;;;2.30;;
26622;SDS011;14254;50.968;5.366;2023-08-06T10:51:25;7.60;;;2.13;;
26622;SDS011;14254;50.968;5.366;2023-08-06T10:53:52;10.77;;;2.65;;
26622;SDS011;14254;50.968;5.366;2023-08-06T10:56:27;5.95;;;1.95;;
26622;SDS011;14254;50.968;5.366;2023-08-06T10:58:56;6.45;;;2.03;;
26622;SDS011;14254;50.968;5.366;2023-08-06T11:01:22;15.98;;;2.15;;
26622;SDS011;14254;50.968;5.366;2023-08-06T11:03:49;7.55;;;2.03;;
26622;SDS011;14254;50.968;5.366;2023-08-06T11:06:19;14.70;;;2.50;;
26622;SDS011;14254;50.968;5.366;2023-08-06T11:08:52;3.50;;;1.95;;
26622;SDS011;14254;50.968;5.366;2023-08-06T11:11:19;3.63;;;2.30;;
26622;SDS011;14254;50.968;5.366;2023-08-06T11:13:47;7.18;;;2.50;;
26622;SDS011;14254;50.968;5.366;2023-08-06T11:16:15;9.48;;;2.03;;
26622;SDS011;14254;50.968;5.366;2023-08-06T11:18:43;9.65;;;2.70;;
26622;SDS011;14254;50.968;5.366;2023-08-06T11:21:09;8.63;;;2.40;;
26622;SDS011;14254;50.968;5.366;2023-08-06T11:23:37;7.75;;;2.90;;
26622;SDS011;14254;50.968;5.366;2023-08-06T11:26:02;5.82;;;2.08;;
26622;SDS011;14254;50.968;5.366;2023-08-06T11:28:28;9.10;;;2.50;;
26622;SDS011;14254;50.968;5.366;2023-08-06T11:30:54;6.32;;;1.70;;
26622;SDS011;14254;50.968;5.366;2023-08-06T11:33:26;5.10;;;1.60;;
26622;SDS011;14254;50.968;5.366;2023-08-06T11:35:54;5.78;;;1.85;;
26622;SDS011;14254;50.968;5.366;2023-08-06T11:38:21;10.07;;;1.70;;
26622;SDS011;14254;50.968;5.366;2023-08-06T11:40:47;9.23;;;2.03;;
26622;SDS011;14254;50.968;5.366;2023-08-06T11:43:13;5.18;;;1.80;;
26622;SDS011;14254;50.968;5.366;2023-08-06T11:45:39;9.48;;;1.80;;
26622;SDS011;14254;50.968;5.366;2023-08-06T11:48:05;7.22;;;2.13;;
26622;SDS011;14254;50.968;5.366;2023-08-06T11:50:36;6.93;;;2.10;;
26622;SDS011;14254;50.968;5.366;2023-08-06T11:53:03;4.57;;;2.22;;
26622;SDS011;14254;50.968;5.366;2023-08-06T11:55:30;4.90;;;1.90;;
26622;SDS011;14254;50.968;5.366;2023-08-06T11:57:56;13.05;;;2.42;;
26622;SDS011;14254;50.968;5.366;2023-08-06T12:00:23;3.97;;;1.63;;
26622;SDS011;14254;50.968;5.366;2023-08-06T12:02:50;5.20;;;1.83;;
26622;SDS011;14254;50.968;5.366;2023-08-06T12:07:51;7.93;;;1.40;;
26622;SDS011;14254;50.968;5.366;2023-08-06T12:10:18;5.95;;;1.48;;
26622;SDS011;14254;50.968;5.366;2023-08-06T12:12:45;2.42;;;1.25;;
26622;SDS011;14254;50.968;5.366;2023-08-06T12:15:11;7.45;;;1.80;;
26622;SDS011;14254;50.968;5.366;2023-08-06T12:17:37;5.47;;;1.40;;
26622;SDS011;14254;50.968;5.366;2023-08-06T12:20:04;4.57;;;1.58;;
26622;SDS011;14254;50.968;5.366;2023-08-06T12:22:31;6.70;;;2.15;;
26622;SDS011;14254;50.968;5.366;2023-08-06T12:25:07;6.57;;;1.58;;
26622;SDS011;14254;50.968;5.366;2023-08-06T12:27:37;9.38;;;3.40;;
26622;SDS011;14254;50.968;5.366;2023-08-06T12:30:04;5.60;;;1.77;;
26622;SDS011;14254;50.968;5.366;2023-08-06T12:32:31;5.22;;;1.50;;
26622;SDS011;14254;50.968;5.366;2023-08-06T12:34:56;4.10;;;1.38;;
26622;SDS011;14254;50.968;5.366;2023-08-06T12:37:23;3.58;;;1.33;;
26622;SDS011;14254;50.968;5.366;2023-08-06T12:39:50;7.45;;;1.85;;
26622;SDS011;14254;50.968;5.366;2023-08-06T12:42:16;7.65;;;1.75;;
26622;SDS011;14254;50.968;5.366;2023-08-06T12:44:41;10.93;;;1.95;;
26622;SDS011;14254;50.968;5.366;2023-08-06T12:47:07;12.75;;;2.63;;
26622;SDS011;14254;50.968;5.366;2023-08-06T12:49:33;6.97;;;1.88;;
26622;SDS011;14254;50.968;5.366;2023-08-06T12:51:59;8.70;;;2.00;;
26622;SDS011;14254;50.968;5.366;2023-08-06T12:54:25;3.55;;;1.67;;
26622;SDS011;14254;50.968;5.366;2023-08-06T12:56:51;9.98;;;2.05;;
26622;SDS011;14254;50.968;5.366;2023-08-06T12:59:17;14.25;;;2.25;;
26622;SDS011;14254;50.968;5.366;2023-08-06T13:01:43;7.13;;;2.42;;
26622;SDS011;14254;50.968;5.366;2023-08-06T13:04:09;4.45;;;1.73;;
26622;SDS011;14254;50.968;5.366;2023-08-06T13:06:36;4.80;;;1.75;;
26622;SDS011;14254;50.968;5.366;2023-08-06T13:09:03;6.43;;;2.40;;
26622;SDS011;14254;50.968;5.366;2023-08-06T13:11:31;9.10;;;2.00;;
26622;SDS011;14254;50.968;5.366;2023-08-06T13:14:00;5.25;;;1.90;;
26622;SDS011;14254;50.968;5.366;2023-08-06T13:16:30;7.55;;;2.28;;
26622;SDS011;14254;50.968;5.366;2023-08-06T13:18:56;4.47;;;1.35;;
26622;SDS011;14254;50.968;5.366;2023-08-06T13:21:21;3.42;;;1.38;;
26622;SDS011;14254;50.968;5.366;2023-08-06T13:23:47;7.38;;;1.60;;
26622;SDS011;14254;50.968;5.366;2023-08-06T13:26:13;5.03;;;1.50;;
26622;SDS011;14254;50.968;5.366;2023-08-06T13:28:40;2.67;;;1.20;;
26622;SDS011;14254;50.968;5.366;2023-08-06T13:31:06;6.05;;;1.38;;
26622;SDS011;14254;50.968;5.366;2023-08-06T13:33:32;3.45;;;1.33;;
26622;SDS011;14254;50.968;5.366;2023-08-06T13:35:58;2.97;;;1.00;;
26622;SDS011;14254;50.968;5.366;2023-08-06T13:38:23;8.82;;;2.17;;
26622;SDS011;14254;50.968;5.366;2023-08-06T13:40:49;7.15;;;1.85;;
26622;SDS011;14254;50.968;5.366;2023-08-06T13:43:15;6.53;;;2.17;;
26622;SDS011;14254;50.968;5.366;2023-08-06T13:45:42;7.15;;;2.10;;
26622;SDS011;14254;50.968;5.366;2023-08-06T13:48:07;7.60;;;1.50;;
26622;SDS011;14254;50.968;5.366;2023-08-06T13:50:35;5.60;;;1.58;;
26622;SDS011;14254;50.968;5.366;2023-08-06T13:53:02;6.45;;;1.75;;
26622;SDS011;14254;50.968;5.366;2023-08-06T13:55:28;8.90;;;1.50;;
26622;SDS011;14254;50.968;5.366;2023-08-06T13:57:53;5.43;;;1.70;;
26622;SDS011;14254;50.968;5.366;2023-08-06T14:00:20;1.63;;;1.27;;
26622;SDS011;14254;50.968;5.366;2023-08-06T14:02:46;8.50;;;1.52;;
26622;SDS011;14254;50.968;5.366;2023-08-06T14:05:12;7.47;;;1.60;;
26622;SDS011;14254;50.968;5.366;2023-08-06T14:07:38;5.97;;;1.48;;
26622;SDS011;14254;50.968;5.366;2023-08-06T14:10:03;4.50;;;1.38;;
26622;SDS011;14254;50.968;5.366;2023-08-06T14:12:30;5.55;;;1.90;;
26622;SDS011;14254;50.968;5.366;2023-08-06T14:14:56;6.28;;;1.98;;
26622;SDS011;14254;50.968;5.366;2023-08-06T14:17:22;6.90;;;2.10;;
26622;SDS011;14254;50.968;5.366;2023-08-06T14:19:47;7.43;;;1.75;;
26622;SDS011;14254;50.968;5.366;2023-08-06T14:22:13;5.43;;;1.60;;
26622;SDS011;14254;50.968;5.366;2023-08-06T14:24:39;1.85;;;1.55;;
26622;SDS011;14254;50.968;5.366;2023-08-06T14:27:05;3.97;;;1.50;;
26622;SDS011;14254;50.968;5.366;2023-08-06T14:29:31;2.97;;;1.02;;
26622;SDS011;14254;50.968;5.366;2023-08-06T14:31:57;3.08;;;1.27;;
26622;SDS011;14254;50.968;5.366;2023-08-06T14:34:22;3.78;;;1.10;;
26622;SDS011;14254;50.968;5.366;2023-08-06T14:36:48;2.55;;;0.70;;
26622;SDS011;14254;50.968;5.366;2023-08-06T14:39:14;2.15;;;0.80;;
26622;SDS011;14254;50.968;5.366;2023-08-06T14:41:39;1.52;;;0.60;;
26622;SDS011;14254;50.968;5.366;2023-08-06T14:44:05;2.40;;;0.90;;
26622;SDS011;14254;50.968;5.366;2023-08-06T14:46:32;0.68;;;0.68;;
26622;SDS011;14254;50.968;5.366;2023-08-06T14:48:58;4.30;;;0.95;;
26622;SDS011;14254;50.968;5.366;2023-08-06T14:51:24;1.70;;;0.70;;
26622;SDS011;14254;50.968;5.366;2023-08-06T14:53:49;1.80;;;0.70;;
26622;SDS011;14254;50.968;5.366;2023-08-06T14:56:15;8.02;;;1.35;;